Aviation Digital Data Service (ADDS)

Output produced by TAFs form (0438 UTC 28 July 2017)
found at http://www.aviationweather.gov/adds/tafs/
 
METAR text: RJTO 280400Z 06007KT 9999 FEW020 BKN/// 29/24 Q1008
Conditions at: RJTO (OSHIMA AIRPORT , JP) observed 0400 UTC 28 July 2017
Temperature: 29.0°C (84°F)
Dewpoint: 24.0°C (75°F) [RH = 74%]
Pressure (altimeter): 29.76 inches Hg (1008.0 mb)
Winds: from the ENE (60 degrees) at 8 MPH (7 knots; 3.6 m/s)
Visibility: 6 or more miles (10+ km)
Ceiling: at least 12,000 feet AGL
Clouds: few clouds at 2000 feet AGL
Weather: no significant weather observed at this time